sensor_id;sensor_type;location;lat;lon;timestamp;P1;durP1;ratioP1;P2;durP2;ratioP2
40322;SDS011;26030;51.164;17.100;2023-07-20T00:03:25;2.70;;;2.10;;
40322;SDS011;26030;51.164;17.100;2023-07-20T00:08:29;2.60;;;2.20;;
40322;SDS011;26030;51.164;17.100;2023-07-20T00:13:34;3.50;;;2.10;;
40322;SDS011;26030;51.164;17.100;2023-07-20T00:18:38;1.90;;;1.80;;
40322;SDS011;26030;51.164;17.100;2023-07-20T00:23:43;2.70;;;1.80;;
40322;SDS011;26030;51.164;17.100;2023-07-20T00:28:49;3.30;;;2.40;;
40322;SDS011;26030;51.164;17.100;2023-07-20T00:33:55;1.60;;;1.50;;
40322;SDS011;26030;51.164;17.100;2023-07-20T00:38:59;3.50;;;2.10;;
40322;SDS011;26030;51.164;17.100;2023-07-20T00:44:04;4.10;;;1.90;;
40322;SDS011;26030;51.164;17.100;2023-07-20T00:49:08;2.80;;;1.60;;
40322;SDS011;26030;51.164;17.100;2023-07-20T00:54:14;2.10;;;1.80;;
40322;SDS011;26030;51.164;17.100;2023-07-20T00:59:19;2.00;;;1.90;;
40322;SDS011;26030;51.164;17.100;2023-07-20T01:04:23;2.50;;;2.10;;
40322;SDS011;26030;51.164;17.100;2023-07-20T01:15:15;2.60;;;1.90;;
40322;SDS011;26030;51.164;17.100;2023-07-20T01:20:20;1.90;;;1.60;;
40322;SDS011;26030;51.164;17.100;2023-07-20T01:25:42;2.80;;;1.70;;
40322;SDS011;26030;51.164;17.100;2023-07-20T01:36:13;1.90;;;1.70;;
40322;SDS011;26030;51.164;17.100;2023-07-20T01:41:19;3.00;;;2.20;;
40322;SDS011;26030;51.164;17.100;2023-07-20T01:46:23;1.70;;;1.60;;
40322;SDS011;26030;51.164;17.100;2023-07-20T01:51:30;5.20;;;1.80;;
40322;SDS011;26030;51.164;17.100;2023-07-20T01:56:34;2.00;;;1.80;;
40322;SDS011;26030;51.164;17.100;2023-07-20T02:01:38;2.90;;;2.30;;
40322;SDS011;26030;51.164;17.100;2023-07-20T02:06:43;2.50;;;1.90;;
40322;SDS011;26030;51.164;17.100;2023-07-20T02:11:47;2.60;;;2.20;;
40322;SDS011;26030;51.164;17.100;2023-07-20T02:16:51;1.80;;;1.70;;
40322;SDS011;26030;51.164;17.100;2023-07-20T02:21:56;1.80;;;1.70;;
40322;SDS011;26030;51.164;17.100;2023-07-20T02:27:00;3.40;;;1.80;;
40322;SDS011;26030;51.164;17.100;2023-07-20T02:32:05;2.90;;;2.10;;
40322;SDS011;26030;51.164;17.100;2023-07-20T02:37:10;2.70;;;1.90;;
40322;SDS011;26030;51.164;17.100;2023-07-20T02:42:18;2.50;;;1.60;;
40322;SDS011;26030;51.164;17.100;2023-07-20T02:47:23;2.00;;;1.80;;
40322;SDS011;26030;51.164;17.100;2023-07-20T02:52:28;2.70;;;1.70;;
40322;SDS011;26030;51.164;17.100;2023-07-20T02:57:33;1.60;;;1.50;;
40322;SDS011;26030;51.164;17.100;2023-07-20T03:02:38;5.30;;;1.60;;
40322;SDS011;26030;51.164;17.100;2023-07-20T03:07:42;1.80;;;1.40;;
40322;SDS011;26030;51.164;17.100;2023-07-20T03:12:47;2.10;;;1.50;;
40322;SDS011;26030;51.164;17.100;2023-07-20T03:17:51;2.10;;;1.90;;
40322;SDS011;26030;51.164;17.100;2023-07-20T03:22:55;2.00;;;1.60;;
40322;SDS011;26030;51.164;17.100;2023-07-20T03:27:59;1.90;;;1.80;;
40322;SDS011;26030;51.164;17.100;2023-07-20T03:33:04;1.80;;;1.60;;
40322;SDS011;26030;51.164;17.100;2023-07-20T03:38:09;2.80;;;1.80;;
40322;SDS011;26030;51.164;17.100;2023-07-20T03:43:13;1.60;;;1.50;;
40322;SDS011;26030;51.164;17.100;2023-07-20T03:48:20;1.90;;;1.50;;
40322;SDS011;26030;51.164;17.100;2023-07-20T03:53:25;4.00;;;1.50;;
40322;SDS011;26030;51.164;17.100;2023-07-20T03:58:29;2.90;;;1.80;;
40322;SDS011;26030;51.164;17.100;2023-07-20T04:03:35;1.90;;;1.80;;
40322;SDS011;26030;51.164;17.100;2023-07-20T04:08:40;3.10;;;1.80;;
40322;SDS011;26030;51.164;17.100;2023-07-20T04:13:44;1.60;;;1.50;;
40322;SDS011;26030;51.164;17.100;2023-07-20T04:18:49;2.50;;;1.40;;
40322;SDS011;26030;51.164;17.100;2023-07-20T04:23:53;1.60;;;1.50;;
40322;SDS011;26030;51.164;17.100;2023-07-20T04:28:57;2.40;;;1.60;;
40322;SDS011;26030;51.164;17.100;2023-07-20T04:34:11;4.70;;;1.70;;
40322;SDS011;26030;51.164;17.100;2023-07-20T04:39:17;1.70;;;1.50;;
40322;SDS011;26030;51.164;17.100;2023-07-20T04:44:37;3.10;;;1.80;;
40322;SDS011;26030;51.164;17.100;2023-07-20T04:49:41;3.40;;;2.10;;
40322;SDS011;26030;51.164;17.100;2023-07-20T04:54:46;2.10;;;1.90;;
40322;SDS011;26030;51.164;17.100;2023-07-20T04:59:51;2.60;;;1.80;;
40322;SDS011;26030;51.164;17.100;2023-07-20T05:04:55;1.90;;;1.50;;
40322;SDS011;26030;51.164;17.100;2023-07-20T05:09:59;1.80;;;1.60;;
40322;SDS011;26030;51.164;17.100;2023-07-20T05:15:05;2.60;;;1.80;;
40322;SDS011;26030;51.164;17.100;2023-07-20T05:20:10;3.90;;;1.90;;
40322;SDS011;26030;51.164;17.100;2023-07-20T05:25:16;2.20;;;1.60;;
40322;SDS011;26030;51.164;17.100;2023-07-20T05:30:22;3.30;;;1.50;;
40322;SDS011;26030;51.164;17.100;2023-07-20T05:35:26;2.10;;;1.50;;
40322;SDS011;26030;51.164;17.100;2023-07-20T05:40:30;3.90;;;1.70;;
40322;SDS011;26030;51.164;17.100;2023-07-20T05:45:35;1.80;;;1.70;;
40322;SDS011;26030;51.164;17.100;2023-07-20T05:50:43;1.70;;;1.60;;
40322;SDS011;26030;51.164;17.100;2023-07-20T05:55:54;2.80;;;1.90;;
40322;SDS011;26030;51.164;17.100;2023-07-20T06:00:58;2.70;;;1.70;;
40322;SDS011;26030;51.164;17.100;2023-07-20T06:06:03;2.10;;;1.90;;
40322;SDS011;26030;51.164;17.100;2023-07-20T06:11:12;2.90;;;2.10;;
40322;SDS011;26030;51.164;17.100;2023-07-20T06:16:16;3.20;;;2.50;;
40322;SDS011;26030;51.164;17.100;2023-07-20T06:21:21;1.90;;;1.80;;
40322;SDS011;26030;51.164;17.100;2023-07-20T06:26:25;3.10;;;2.00;;
40322;SDS011;26030;51.164;17.100;2023-07-20T06:31:29;3.70;;;2.40;;
40322;SDS011;26030;51.164;17.100;2023-07-20T06:36:34;2.60;;;2.30;;
40322;SDS011;26030;51.164;17.100;2023-07-20T06:41:39;2.80;;;2.10;;
40322;SDS011;26030;51.164;17.100;2023-07-20T06:46:46;2.40;;;2.00;;
40322;SDS011;26030;51.164;17.100;2023-07-20T06:51:50;4.60;;;2.20;;
40322;SDS011;26030;51.164;17.100;2023-07-20T06:56:54;4.30;;;1.90;;
40322;SDS011;26030;51.164;17.100;2023-07-20T07:02:01;2.10;;;1.90;;
40322;SDS011;26030;51.164;17.100;2023-07-20T07:07:05;3.00;;;2.00;;
40322;SDS011;26030;51.164;17.100;2023-07-20T07:12:10;4.60;;;2.30;;
40322;SDS011;26030;51.164;17.100;2023-07-20T07:17:15;3.70;;;2.40;;
40322;SDS011;26030;51.164;17.100;2023-07-20T07:22:22;5.60;;;2.70;;
40322;SDS011;26030;51.164;17.100;2023-07-20T07:27:27;10.10;;;2.60;;
40322;SDS011;26030;51.164;17.100;2023-07-20T07:32:31;8.00;;;2.50;;
40322;SDS011;26030;51.164;17.100;2023-07-20T07:37:36;2.60;;;2.20;;
40322;SDS011;26030;51.164;17.100;2023-07-20T07:43:00;4.80;;;2.60;;
40322;SDS011;26030;51.164;17.100;2023-07-20T07:48:07;4.70;;;2.60;;
40322;SDS011;26030;51.164;17.100;2023-07-20T07:53:14;3.20;;;2.60;;
40322;SDS011;26030;51.164;17.100;2023-07-20T07:58:19;4.50;;;2.50;;
40322;SDS011;26030;51.164;17.100;2023-07-20T08:03:23;2.60;;;2.40;;
40322;SDS011;26030;51.164;17.100;2023-07-20T08:08:28;2.40;;;2.20;;
40322;SDS011;26030;51.164;17.100;2023-07-20T08:13:33;3.70;;;2.70;;
40322;SDS011;26030;51.164;17.100;2023-07-20T08:18:37;3.60;;;2.30;;
40322;SDS011;26030;51.164;17.100;2023-07-20T08:23:41;5.00;;;2.40;;
40322;SDS011;26030;51.164;17.100;2023-07-20T08:28:46;5.90;;;2.50;;
40322;SDS011;26030;51.164;17.100;2023-07-20T08:33:52;3.00;;;2.20;;
40322;SDS011;26030;51.164;17.100;2023-07-20T08:38:56;2.40;;;2.00;;
40322;SDS011;26030;51.164;17.100;2023-07-20T08:44:01;3.80;;;1.80;;
40322;SDS011;26030;51.164;17.100;2023-07-20T08:49:06;2.60;;;1.90;;
40322;SDS011;26030;51.164;17.100;2023-07-20T08:54:11;2.10;;;1.70;;
40322;SDS011;26030;51.164;17.100;2023-07-20T08:59:17;2.60;;;1.80;;
40322;SDS011;26030;51.164;17.100;2023-07-20T09:04:21;1.60;;;1.50;;
40322;SDS011;26030;51.164;17.100;2023-07-20T09:09:26;1.50;;;1.30;;
40322;SDS011;26030;51.164;17.100;2023-07-20T09:14:30;1.60;;;1.50;;
40322;SDS011;26030;51.164;17.100;2023-07-20T09:19:35;4.00;;;1.60;;
40322;SDS011;26030;51.164;17.100;2023-07-20T09:24:40;1.80;;;1.50;;
40322;SDS011;26030;51.164;17.100;2023-07-20T09:29:51;1.70;;;1.50;;
40322;SDS011;26030;51.164;17.100;2023-07-20T09:34:55;1.60;;;1.20;;
40322;SDS011;26030;51.164;17.100;2023-07-20T09:39:59;1.90;;;1.70;;
40322;SDS011;26030;51.164;17.100;2023-07-20T09:45:08;1.20;;;1.10;;
40322;SDS011;26030;51.164;17.100;2023-07-20T09:50:12;2.00;;;1.30;;
40322;SDS011;26030;51.164;17.100;2023-07-20T09:55:19;1.50;;;1.10;;
40322;SDS011;26030;51.164;17.100;2023-07-20T10:00:24;1.90;;;1.20;;
40322;SDS011;26030;51.164;17.100;2023-07-20T10:05:33;1.40;;;1.20;;
40322;SDS011;26030;51.164;17.100;2023-07-20T10:10:41;1.80;;;1.10;;
40322;SDS011;26030;51.164;17.100;2023-07-20T10:15:54;5.60;;;1.20;;
40322;SDS011;26030;51.164;17.100;2023-07-20T10:21:00;1.20;;;1.00;;
40322;SDS011;26030;51.164;17.100;2023-07-20T10:26:08;1.50;;;1.10;;
40322;SDS011;26030;51.164;17.100;2023-07-20T10:31:13;1.20;;;1.10;;
40322;SDS011;26030;51.164;17.100;2023-07-20T10:36:25;1.00;;;0.80;;
40322;SDS011;26030;51.164;17.100;2023-07-20T10:41:37;1.00;;;0.90;;
40322;SDS011;26030;51.164;17.100;2023-07-20T10:46:44;1.10;;;1.00;;
40322;SDS011;26030;51.164;17.100;2023-07-20T10:51:59;2.70;;;1.00;;
40322;SDS011;26030;51.164;17.100;2023-07-20T10:57:24;1.10;;;0.90;;
40322;SDS011;26030;51.164;17.100;2023-07-20T11:02:28;1.10;;;0.90;;
40322;SDS011;26030;51.164;17.100;2023-07-20T11:07:38;2.40;;;0.80;;
40322;SDS011;26030;51.164;17.100;2023-07-20T11:13:19;1.90;;;1.00;;
40322;SDS011;26030;51.164;17.100;2023-07-20T11:18:27;3.70;;;1.10;;
40322;SDS011;26030;51.164;17.100;2023-07-20T11:23:31;1.40;;;1.30;;
40322;SDS011;26030;51.164;17.100;2023-07-20T11:28:36;3.30;;;1.20;;
40322;SDS011;26030;51.164;17.100;2023-07-20T11:33:40;0.80;;;0.80;;
40322;SDS011;26030;51.164;17.100;2023-07-20T11:38:45;1.60;;;0.80;;
40322;SDS011;26030;51.164;17.100;2023-07-20T11:43:50;3.60;;;1.00;;
40322;SDS011;26030;51.164;17.100;2023-07-20T11:48:58;4.50;;;1.40;;
40322;SDS011;26030;51.164;17.100;2023-07-20T11:54:08;1.00;;;0.90;;
40322;SDS011;26030;51.164;17.100;2023-07-20T11:59:13;1.90;;;0.70;;
40322;SDS011;26030;51.164;17.100;2023-07-20T12:04:17;2.10;;;0.90;;
40322;SDS011;26030;51.164;17.100;2023-07-20T12:09:21;1.40;;;0.80;;
40322;SDS011;26030;51.164;17.100;2023-07-20T12:14:25;1.20;;;1.00;;
40322;SDS011;26030;51.164;17.100;2023-07-20T12:19:30;1.00;;;0.90;;
40322;SDS011;26030;51.164;17.100;2023-07-20T12:24:34;1.00;;;0.80;;
40322;SDS011;26030;51.164;17.100;2023-07-20T12:29:38;1.80;;;1.30;;
40322;SDS011;26030;51.164;17.100;2023-07-20T12:34:43;1.80;;;0.90;;
40322;SDS011;26030;51.164;17.100;2023-07-20T12:39:47;1.30;;;1.20;;
40322;SDS011;26030;51.164;17.100;2023-07-20T12:44:51;1.10;;;1.10;;
40322;SDS011;26030;51.164;17.100;2023-07-20T12:49:56;1.00;;;1.00;;
40322;SDS011;26030;51.164;17.100;2023-07-20T12:55:00;1.40;;;1.30;;
40322;SDS011;26030;51.164;17.100;2023-07-20T13:00:06;2.70;;;1.70;;
40322;SDS011;26030;51.164;17.100;2023-07-20T13:05:14;1.30;;;1.30;;
40322;SDS011;26030;51.164;17.100;2023-07-20T13:10:18;1.60;;;1.20;;
40322;SDS011;26030;51.164;17.100;2023-07-20T13:15:24;1.20;;;1.10;;
40322;SDS011;26030;51.164;17.100;2023-07-20T13:20:34;2.50;;;1.40;;
40322;SDS011;26030;51.164;17.100;2023-07-20T13:25:38;1.50;;;1.40;;
40322;SDS011;26030;51.164;17.100;2023-07-20T13:30:42;1.30;;;1.20;;
40322;SDS011;26030;51.164;17.100;2023-07-20T13:35:48;1.40;;;1.10;;
40322;SDS011;26030;51.164;17.100;2023-07-20T13:40:53;1.40;;;1.10;;
40322;SDS011;26030;51.164;17.100;2023-07-20T13:45:57;2.80;;;1.30;;
40322;SDS011;26030;51.164;17.100;2023-07-20T13:51:01;1.70;;;1.30;;
40322;SDS011;26030;51.164;17.100;2023-07-20T13:56:06;1.30;;;1.20;;
40322;SDS011;26030;51.164;17.100;2023-07-20T14:01:15;2.30;;;1.40;;
40322;SDS011;26030;51.164;17.100;2023-07-20T14:06:24;2.80;;;1.90;;
40322;SDS011;26030;51.164;17.100;2023-07-20T14:11:33;2.00;;;1.60;;
40322;SDS011;26030;51.164;17.100;2023-07-20T14:16:40;2.20;;;1.20;;
40322;SDS011;26030;51.164;17.100;2023-07-20T14:21:45;5.40;;;1.60;;
40322;SDS011;26030;51.164;17.100;2023-07-20T14:26:49;3.60;;;1.60;;
40322;SDS011;26030;51.164;17.100;2023-07-20T14:31:54;2.60;;;1.60;;
40322;SDS011;26030;51.164;17.100;2023-07-20T14:36:59;5.30;;;1.70;;
40322;SDS011;26030;51.164;17.100;2023-07-20T14:42:04;2.70;;;1.40;;
40322;SDS011;26030;51.164;17.100;2023-07-20T14:47:09;3.50;;;1.30;;
40322;SDS011;26030;51.164;17.100;2023-07-20T14:52:18;2.00;;;1.30;;
40322;SDS011;26030;51.164;17.100;2023-07-20T14:57:22;1.70;;;1.40;;
40322;SDS011;26030;51.164;17.100;2023-07-20T15:02:27;2.40;;;1.40;;
40322;SDS011;26030;51.164;17.100;2023-07-20T15:07:31;2.90;;;2.20;;
40322;SDS011;26030;51.164;17.100;2023-07-20T15:12:36;2.40;;;1.50;;
40322;SDS011;26030;51.164;17.100;2023-07-20T15:17:44;2.10;;;1.60;;
40322;SDS011;26030;51.164;17.100;2023-07-20T15:22:49;3.00;;;1.50;;
40322;SDS011;26030;51.164;17.100;2023-07-20T15:27:54;1.60;;;1.40;;
40322;SDS011;26030;51.164;17.100;2023-07-20T15:33:01;2.50;;;1.70;;
40322;SDS011;26030;51.164;17.100;2023-07-20T15:38:08;1.50;;;1.40;;
40322;SDS011;26030;51.164;17.100;2023-07-20T15:43:12;1.60;;;1.40;;
40322;SDS011;26030;51.164;17.100;2023-07-20T15:48:19;2.30;;;1.50;;
40322;SDS011;26030;51.164;17.100;2023-07-20T15:53:26;2.40;;;1.80;;
40322;SDS011;26030;51.164;17.100;2023-07-20T15:58:30;4.30;;;1.40;;
40322;SDS011;26030;51.164;17.100;2023-07-20T16:03:35;1.60;;;1.30;;
40322;SDS011;26030;51.164;17.100;2023-07-20T16:08:41;1.40;;;1.30;;
40322;SDS011;26030;51.164;17.100;2023-07-20T16:13:45;1.40;;;1.10;;
40322;SDS011;26030;51.164;17.100;2023-07-20T16:18:50;1.10;;;1.10;;
40322;SDS011;26030;51.164;17.100;2023-07-20T16:23:54;1.10;;;1.00;;
40322;SDS011;26030;51.164;17.100;2023-07-20T16:28:58;2.00;;;1.00;;
40322;SDS011;26030;51.164;17.100;2023-07-20T16:34:05;1.40;;;1.00;;
40322;SDS011;26030;51.164;17.100;2023-07-20T16:39:09;1.40;;;1.10;;
40322;SDS011;26030;51.164;17.100;2023-07-20T16:44:17;1.40;;;1.00;;
40322;SDS011;26030;51.164;17.100;2023-07-20T16:49:21;0.80;;;0.70;;
40322;SDS011;26030;51.164;17.100;2023-07-20T16:54:25;0.80;;;0.80;;
40322;SDS011;26030;51.164;17.100;2023-07-20T16:59:31;0.90;;;0.90;;
40322;SDS011;26030;51.164;17.100;2023-07-20T17:04:35;1.20;;;1.00;;
40322;SDS011;26030;51.164;17.100;2023-07-20T17:09:40;2.80;;;0.90;;
40322;SDS011;26030;51.164;17.100;2023-07-20T17:14:44;1.20;;;1.00;;
40322;SDS011;26030;51.164;17.100;2023-07-20T17:19:48;1.50;;;0.80;;
40322;SDS011;26030;51.164;17.100;2023-07-20T17:25:13;1.00;;;0.80;;
40322;SDS011;26030;51.164;17.100;2023-07-20T17:30:20;1.10;;;1.00;;
40322;SDS011;26030;51.164;17.100;2023-07-20T17:35:25;1.20;;;0.70;;
40322;SDS011;26030;51.164;17.100;2023-07-20T17:40:31;1.20;;;0.90;;
40322;SDS011;26030;51.164;17.100;2023-07-20T17:45:39;1.00;;;1.00;;
40322;SDS011;26030;51.164;17.100;2023-07-20T17:50:44;0.80;;;0.80;;
40322;SDS011;26030;51.164;17.100;2023-07-20T17:55:48;1.90;;;1.10;;
40322;SDS011;26030;51.164;17.100;2023-07-20T18:00:53;0.70;;;0.70;;
40322;SDS011;26030;51.164;17.100;2023-07-20T18:06:05;0.80;;;0.80;;
40322;SDS011;26030;51.164;17.100;2023-07-20T18:11:11;1.00;;;1.00;;
40322;SDS011;26030;51.164;17.100;2023-07-20T18:16:16;1.50;;;1.00;;
40322;SDS011;26030;51.164;17.100;2023-07-20T18:21:21;1.00;;;0.90;;
40322;SDS011;26030;51.164;17.100;2023-07-20T18:26:26;0.70;;;0.70;;
40322;SDS011;26030;51.164;17.100;2023-07-20T18:31:31;0.60;;;0.60;;
40322;SDS011;26030;51.164;17.100;2023-07-20T18:36:36;1.30;;;1.20;;
40322;SDS011;26030;51.164;17.100;2023-07-20T18:41:42;0.80;;;0.80;;
40322;SDS011;26030;51.164;17.100;2023-07-20T18:46:48;1.20;;;0.90;;
40322;SDS011;26030;51.164;17.100;2023-07-20T18:51:53;0.90;;;0.90;;
40322;SDS011;26030;51.164;17.100;2023-07-20T18:56:58;1.90;;;0.60;;
40322;SDS011;26030;51.164;17.100;2023-07-20T19:02:04;2.30;;;0.90;;
40322;SDS011;26030;51.164;17.100;2023-07-20T19:07:08;0.90;;;0.90;;
40322;SDS011;26030;51.164;17.100;2023-07-20T19:12:13;0.70;;;0.70;;
40322;SDS011;26030;51.164;17.100;2023-07-20T19:17:18;0.80;;;0.80;;
40322;SDS011;26030;51.164;17.100;2023-07-20T19:22:24;1.00;;;0.90;;
40322;SDS011;26030;51.164;17.100;2023-07-20T19:27:30;0.80;;;0.80;;
40322;SDS011;26030;51.164;17.100;2023-07-20T19:32:34;1.10;;;1.00;;
40322;SDS011;26030;51.164;17.100;2023-07-20T19:37:39;1.00;;;0.80;;
40322;SDS011;26030;51.164;17.100;2023-07-20T19:42:48;1.30;;;0.80;;
40322;SDS011;26030;51.164;17.100;2023-07-20T19:47:56;0.90;;;0.80;;
40322;SDS011;26030;51.164;17.100;2023-07-20T19:53:02;2.00;;;0.90;;
40322;SDS011;26030;51.164;17.100;2023-07-20T19:58:27;1.00;;;0.80;;
40322;SDS011;26030;51.164;17.100;2023-07-20T20:03:32;0.80;;;0.80;;
40322;SDS011;26030;51.164;17.100;2023-07-20T20:08:40;0.70;;;0.70;;
40322;SDS011;26030;51.164;17.100;2023-07-20T20:13:49;1.20;;;1.10;;
40322;SDS011;26030;51.164;17.100;2023-07-20T20:18:56;2.00;;;1.00;;
40322;SDS011;26030;51.164;17.100;2023-07-20T20:24:03;1.40;;;0.80;;
40322;SDS011;26030;51.164;17.100;2023-07-20T20:29:08;1.40;;;0.90;;
40322;SDS011;26030;51.164;17.100;2023-07-20T20:34:13;0.80;;;0.80;;
40322;SDS011;26030;51.164;17.100;2023-07-20T20:39:20;1.10;;;1.00;;
40322;SDS011;26030;51.164;17.100;2023-07-20T20:44:26;1.10;;;1.00;;
40322;SDS011;26030;51.164;17.100;2023-07-20T20:49:31;0.90;;;0.90;;
40322;SDS011;26030;51.164;17.100;2023-07-20T20:54:37;0.70;;;0.70;;
40322;SDS011;26030;51.164;17.100;2023-07-20T20:59:42;1.70;;;1.20;;
40322;SDS011;26030;51.164;17.100;2023-07-20T21:04:51;1.00;;;0.90;;
40322;SDS011;26030;51.164;17.100;2023-07-20T21:09:55;1.50;;;1.20;;
40322;SDS011;26030;51.164;17.100;2023-07-20T21:15:00;1.20;;;1.10;;
40322;SDS011;26030;51.164;17.100;2023-07-20T21:20:09;1.00;;;1.00;;
40322;SDS011;26030;51.164;17.100;2023-07-20T21:25:13;1.50;;;1.10;;
40322;SDS011;26030;51.164;17.100;2023-07-20T21:30:18;1.00;;;1.00;;
40322;SDS011;26030;51.164;17.100;2023-07-20T21:35:23;1.70;;;1.20;;
40322;SDS011;26030;51.164;17.100;2023-07-20T21:40:28;2.50;;;1.20;;
40322;SDS011;26030;51.164;17.100;2023-07-20T21:45:32;1.00;;;1.00;;
40322;SDS011;26030;51.164;17.100;2023-07-20T21:50:36;1.00;;;0.90;;
40322;SDS011;26030;51.164;17.100;2023-07-20T21:55:40;0.70;;;0.70;;
40322;SDS011;26030;51.164;17.100;2023-07-20T22:00:45;1.00;;;1.00;;
40322;SDS011;26030;51.164;17.100;2023-07-20T22:05:54;1.20;;;1.00;;
40322;SDS011;26030;51.164;17.100;2023-07-20T22:11:09;0.90;;;0.80;;
40322;SDS011;26030;51.164;17.100;2023-07-20T22:16:13;0.90;;;0.90;;
40322;SDS011;26030;51.164;17.100;2023-07-20T22:21:17;1.40;;;1.00;;
40322;SDS011;26030;51.164;17.100;2023-07-20T22:26:22;1.40;;;1.10;;
40322;SDS011;26030;51.164;17.100;2023-07-20T22:31:28;2.50;;;1.00;;
40322;SDS011;26030;51.164;17.100;2023-07-20T22:36:32;0.90;;;0.90;;
40322;SDS011;26030;51.164;17.100;2023-07-20T22:41:37;1.20;;;1.00;;
40322;SDS011;26030;51.164;17.100;2023-07-20T22:46:41;1.20;;;1.10;;
40322;SDS011;26030;51.164;17.100;2023-07-20T22:51:46;1.30;;;1.00;;
40322;SDS011;26030;51.164;17.100;2023-07-20T22:56:50;1.10;;;1.00;;
40322;SDS011;26030;51.164;17.100;2023-07-20T23:01:54;1.40;;;1.30;;
40322;SDS011;26030;51.164;17.100;2023-07-20T23:06:59;1.00;;;0.90;;
40322;SDS011;26030;51.164;17.100;2023-07-20T23:12:04;1.70;;;1.60;;
40322;SDS011;26030;51.164;17.100;2023-07-20T23:17:08;1.00;;;1.00;;
40322;SDS011;26030;51.164;17.100;2023-07-20T23:22:15;1.40;;;1.00;;
40322;SDS011;26030;51.164;17.100;2023-07-20T23:27:21;1.60;;;1.20;;
40322;SDS011;26030;51.164;17.100;2023-07-20T23:32:26;2.50;;;1.50;;
40322;SDS011;26030;51.164;17.100;2023-07-20T23:37:30;3.00;;;1.40;;
40322;SDS011;26030;51.164;17.100;2023-07-20T23:42:34;2.40;;;1.40;;
40322;SDS011;26030;51.164;17.100;2023-07-20T23:47:39;1.30;;;1.10;;
40322;SDS011;26030;51.164;17.100;2023-07-20T23:52:44;1.30;;;1.10;;
40322;SDS011;26030;51.164;17.100;2023-07-20T23:57:48;1.10;;;1.00;;
